Young Endeavour — VMGW — position and weather

sailwx.info

Track history (hours):
 
Tides and Currents Weather Stations Pressure Air Temp Water Temp Dewpoint Dewpoint Depression Visibility Wind Speed Wind Dir Waves Ship Positions

Young Endeavour (Australia)

Ship's website: http://www.youngendeavour.gov.au/

Last reported at 2019-Dec-08 22:29 UTC. Time now 2019-Dec-15 09:58 UTC.
Position S 12°29' E 130°53'.

Length 44 m; beam 7.8 m; draft 4 m.

Type: Other ship. MMSI: 503000136.

Date/timePositionNaut miles runAvg speedWind from/ knotsBaromVisibWave heightAir tempDewpointWater temp
2019-Dec-08 22:29S 12°29' E 130°53'3 1.6
2019-Dec-08 20:29S 12°29' E 130°50'0 0.1
2019-Dec-08 19:56S 12°29' E 130°50'0 0.0
2019-Dec-08 17:59S 12°29' E 130°50'0 0.0
2019-Dec-08 16:59S 12°29' E 130°50'0 0.0
2019-Dec-08 12:59S 12°29' E 130°50'0 0.0
2019-Dec-08 10:59S 12°29' E 130°50'0 0.0
2019-Dec-08 09:44S 12°29' E 130°50'0 0.0
2019-Dec-08 08:32S 12°29' E 130°50'0 0.0
2019-Dec-08 03:29S 12°29' E 130°50'0 0.0
2019-Dec-08 02:50S 12°29' E 130°50'0 0.1
2019-Dec-08 02:20S 12°29' E 130°50'0 0.0
2019-Dec-07 23:53S 12°29' E 130°50'0 0.1
2019-Dec-07 23:05S 12°29' E 130°50'0 0.0
2019-Dec-07 21:11S 12°29' E 130°50'0 0.0
2019-Dec-07 20:14S 12°29' E 130°50'0 0.0
2019-Dec-07 14:12S 12°29' E 130°50'0 0.1
2019-Dec-07 13:59S 12°29' E 130°50'0 0.0
2019-Dec-07 10:29S 12°29' E 130°50'0 0.0
2019-Dec-07 09:29S 12°29' E 130°50'0 0.0
2019-Dec-07 08:29S 12°29' E 130°50'3 2.0
2019-Dec-07 06:59S 12°32' E 130°51'16997273.9
2019-Dec-07 06:45S 33°36' E 151°24'17016534.0
2019-Dec-07 06:29S 12°31' E 130°50'6 3.2
2019-Dec-07 04:30S 12°25' E 130°46'4 2.8
2019-Dec-07 03:00S 12°22' E 130°43'3 1.5
2019-Dec-07 01:00S 12°21' E 130°41'4 3.7
2019-Dec-06 23:59S 12°20' E 130°37'5 9.8
2019-Dec-06 23:30S 12°20' E 130°32'36 9.9
2019-Dec-06 19:50S 12°24' E 129°55'410.3
2019-Dec-06 19:26S 12°25' E 129°51'1410.2
2019-Dec-06 18:00S 12°27' E 129°37'1010.4
2019-Dec-06 17:00S 12°29' E 129°26'1110.6
2019-Dec-06 15:58S 12°31' E 129°15'1510.5
2019-Dec-06 14:30S 12°34' E 128°59'1010.5
2019-Dec-06 13:34S 12°36' E 128°50'610.5
2019-Dec-06 13:00S 12°37' E 128°44'610.6
2019-Dec-06 12:29S 12°38' E 128°38'510.6
2019-Dec-06 11:59S 12°39' E 128°33'1110.7
2019-Dec-06 11:00S 12°41' E 128°22'  
Track history (hours):
 
Tides and Currents Weather Stations Pressure Air Temp Water Temp Dewpoint Dewpoint Depression Visibility Wind Speed Wind Dir Waves Ship Positions

Young Endeavour (Australia)

Ship's website: http://www.youngendeavour.gov.au/

Last reported at 2019-Dec-08 22:29 UTC. Time now 2019-Dec-15 09:58 UTC.
Position S 12°29' E 130°53'.

Length 44 m; beam 7.8 m; draft 4 m.

Type: Other ship. MMSI: 503000136.

Date/timePositionNaut miles runAvg speedWind from/ knotsBaromVisibWave heightAir tempDewpointWater temp
2019-Dec-08 22:29S 12°29' E 130°53'3 1.6
2019-Dec-08 20:29S 12°29' E 130°50'0 0.1
2019-Dec-08 19:56S 12°29' E 130°50'0 0.0
2019-Dec-08 17:59S 12°29' E 130°50'0 0.0
2019-Dec-08 16:59S 12°29' E 130°50'0 0.0
2019-Dec-08 12:59S 12°29' E 130°50'0 0.0
2019-Dec-08 10:59S 12°29' E 130°50'0 0.0
2019-Dec-08 09:44S 12°29' E 130°50'0 0.0
2019-Dec-08 08:32S 12°29' E 130°50'0 0.0
2019-Dec-08 03:29S 12°29' E 130°50'0 0.0
2019-Dec-08 02:50S 12°29' E 130°50'0 0.1
2019-Dec-08 02:20S 12°29' E 130°50'0 0.0
2019-Dec-07 23:53S 12°29' E 130°50'0 0.1
2019-Dec-07 23:05S 12°29' E 130°50'0 0.0
2019-Dec-07 21:11S 12°29' E 130°50'0 0.0
2019-Dec-07 20:14S 12°29' E 130°50'0 0.0
2019-Dec-07 14:12S 12°29' E 130°50'0 0.1
2019-Dec-07 13:59S 12°29' E 130°50'0 0.0
2019-Dec-07 10:29S 12°29' E 130°50'0 0.0
2019-Dec-07 09:29S 12°29' E 130°50'0 0.0
2019-Dec-07 08:29S 12°29' E 130°50'3 2.0
2019-Dec-07 06:59S 12°32' E 130°51'16997273.9
2019-Dec-07 06:45S 33°36' E 151°24'17016534.0
2019-Dec-07 06:29S 12°31' E 130°50'6 3.2
2019-Dec-07 04:30S 12°25' E 130°46'4 2.8
2019-Dec-07 03:00S 12°22' E 130°43'3 1.5
2019-Dec-07 01:00S 12°21' E 130°41'4 3.7
2019-Dec-06 23:59S 12°20' E 130°37'5 9.8
2019-Dec-06 23:30S 12°20' E 130°32'36 9.9
2019-Dec-06 19:50S 12°24' E 129°55'410.3
2019-Dec-06 19:26S 12°25' E 129°51'1410.2
2019-Dec-06 18:00S 12°27' E 129°37'1010.4
2019-Dec-06 17:00S 12°29' E 129°26'1110.6
2019-Dec-06 15:58S 12°31' E 129°15'1510.5
2019-Dec-06 14:30S 12°34' E 128°59'1010.5
2019-Dec-06 13:34S 12°36' E 128°50'610.5
2019-Dec-06 13:00S 12°37' E 128°44'610.6
2019-Dec-06 12:29S 12°38' E 128°38'510.6
2019-Dec-06 11:59S 12°39' E 128°33'1110.7
2019-Dec-06 11:00S 12°41' E 128°22'  

Dump ship's entire track history